createdAt,value
2023-05-24T00:02:16.581Z,18.82
2023-05-24T00:04:45.281Z,18.89
2023-05-24T00:07:12.716Z,18.79
2023-05-24T00:09:39.786Z,18.72
2023-05-24T00:12:07.019Z,18.74
2023-05-24T00:14:34.381Z,18.67
2023-05-24T00:17:01.581Z,18.83
2023-05-24T00:19:29.297Z,18.67
2023-05-24T00:21:56.605Z,18.80
2023-05-24T00:24:23.667Z,18.69
2023-05-24T00:26:51.253Z,18.57
2023-05-24T00:29:18.342Z,18.53
2023-05-24T00:31:45.414Z,18.68
2023-05-24T00:34:12.469Z,18.65
2023-05-24T00:36:39.517Z,18.74
2023-05-24T00:39:06.563Z,18.66
2023-05-24T00:41:33.831Z,18.69
2023-05-24T00:44:00.918Z,18.55
2023-05-24T00:46:32.432Z,18.44
2023-05-24T00:49:01.494Z,18.61
2023-05-24T00:51:28.757Z,18.66
2023-05-24T00:53:56.485Z,18.63
2023-05-24T00:56:23.825Z,18.61
2023-05-24T00:58:54.846Z,18.70
2023-05-24T01:01:26.186Z,18.48
2023-05-24T01:03:54.528Z,18.63
2023-05-24T01:06:23.621Z,18.55
2023-05-24T01:09:06.786Z,18.50
2023-05-24T01:12:02.500Z,18.54
2023-05-24T01:15:13.565Z,18.46
2023-05-24T01:18:17.257Z,18.54
2023-05-24T01:20:46.428Z,18.33
2023-05-24T01:23:48.315Z,18.32
2023-05-24T01:27:04.783Z,18.32
2023-05-24T01:29:33.869Z,18.37
2023-05-24T01:32:02.401Z,18.40
2023-05-24T01:34:29.575Z,18.43
2023-05-24T01:36:56.842Z,18.25
2023-05-24T01:39:28.427Z,18.48
2023-05-24T01:42:21.638Z,18.37
2023-05-24T01:45:14.365Z,18.33
2023-05-24T01:48:24.692Z,18.31
2023-05-24T01:51:00.268Z,18.36
2023-05-24T01:53:39.488Z,18.33
2023-05-24T01:56:07.687Z,18.26
2023-05-24T01:58:36.749Z,18.22
2023-05-24T02:01:03.850Z,18.21
2023-05-24T02:03:32.177Z,18.22
2023-05-24T02:05:59.261Z,18.11
2023-05-24T02:08:26.431Z,18.12
2023-05-24T02:10:53.528Z,18.09
2023-05-24T02:13:20.987Z,17.96
2023-05-24T02:15:48.120Z,17.93
2023-05-24T02:18:18.627Z,18.00
2023-05-24T02:20:46.084Z,18.04
2023-05-24T02:23:13.365Z,18.12
2023-05-24T02:25:40.452Z,18.11
2023-05-24T02:28:07.486Z,17.90
2023-05-24T02:30:34.531Z,17.83
2023-05-24T02:33:02.162Z,17.84
2023-05-24T02:35:29.331Z,17.87
2023-05-24T02:37:58.791Z,17.71
2023-05-24T02:40:26.334Z,17.91
2023-05-24T02:42:53.436Z,17.92
2023-05-24T02:45:20.633Z,17.75
2023-05-24T02:47:47.749Z,17.73
2023-05-24T02:50:14.841Z,17.77
2023-05-24T02:52:42.048Z,17.79
2023-05-24T02:55:09.687Z,17.97
2023-05-24T02:57:38.402Z,17.84
2023-05-24T03:00:09.622Z,17.80
2023-05-24T03:02:38.865Z,17.80
2023-05-24T03:05:06.836Z,17.77
2023-05-24T03:07:34.028Z,17.57
2023-05-24T03:10:01.144Z,17.61
2023-05-24T03:12:28.187Z,17.74
2023-05-24T03:14:55.248Z,17.72
2023-05-24T03:17:22.326Z,17.76
2023-05-24T03:19:49.408Z,17.67
2023-05-24T03:22:16.502Z,17.68
2023-05-24T03:24:43.577Z,17.66
2023-05-24T03:27:10.690Z,17.86
2023-05-24T03:29:37.911Z,17.88
2023-05-24T03:32:05.586Z,17.84
2023-05-24T03:34:32.715Z,17.84
2023-05-24T03:36:59.792Z,17.66
2023-05-24T03:39:26.854Z,17.78
2023-05-24T03:41:53.892Z,17.90
2023-05-24T03:44:21.072Z,17.78
2023-05-24T03:46:48.146Z,17.78
2023-05-24T03:49:15.316Z,18.19
2023-05-24T03:51:42.324Z,18.11
2023-05-24T03:54:09.370Z,18.05
2023-05-24T03:56:37.855Z,18.24
2023-05-24T03:59:04.964Z,18.29
2023-05-24T04:01:34.560Z,19.01
2023-05-24T04:04:03.629Z,20.01
2023-05-24T04:06:31.115Z,20.32
2023-05-24T04:08:59.831Z,19.79
2023-05-24T04:11:30.178Z,19.43
2023-05-24T04:14:01.603Z,19.36
2023-05-24T04:16:29.009Z,19.27
2023-05-24T04:18:56.769Z,19.02
2023-05-24T04:21:24.057Z,19.02
2023-05-24T04:23:51.165Z,19.13
2023-05-24T04:26:18.465Z,19.08
2023-05-24T04:28:48.783Z,18.94
2023-05-24T04:31:16.609Z,18.99
2023-05-24T04:33:43.737Z,19.28
2023-05-24T04:36:11.742Z,19.34
2023-05-24T04:38:41.044Z,19.78
2023-05-24T04:41:08.233Z,19.75
2023-05-24T04:43:35.637Z,19.40
2023-05-24T04:46:02.943Z,19.66
2023-05-24T04:48:30.460Z,19.50
2023-05-24T04:50:58.580Z,19.70
2023-05-24T04:53:25.869Z,19.70
2023-05-24T04:55:53.216Z,19.71
2023-05-24T04:58:20.338Z,19.29
2023-05-24T05:00:47.489Z,19.36
2023-05-24T05:03:14.690Z,19.12
2023-05-24T05:05:41.865Z,19.17
2023-05-24T05:08:09.691Z,19.58
2023-05-24T05:10:37.302Z,20.27
2023-05-24T05:13:04.739Z,22.50
2023-05-24T05:15:32.779Z,24.38
2023-05-24T05:18:00.384Z,24.85
2023-05-24T05:20:27.575Z,25.20
2023-05-24T05:22:54.785Z,25.57
2023-05-24T05:25:22.141Z,26.22
2023-05-24T05:27:49.209Z,29.63
2023-05-24T05:30:16.502Z,29.95
2023-05-24T05:32:43.672Z,29.81
2023-05-24T05:35:10.880Z,29.40
2023-05-24T05:37:38.032Z,27.26
2023-05-24T05:40:05.717Z,28.68
2023-05-24T05:42:32.790Z,29.63
2023-05-24T05:44:59.967Z,30.87
2023-05-24T05:47:27.128Z,29.45
2023-05-24T05:49:54.350Z,27.37
2023-05-24T05:52:21.469Z,28.73
2023-05-24T05:54:48.525Z,31.94
2023-05-24T05:57:16.385Z,32.25
2023-05-24T05:59:43.515Z,32.67
2023-05-24T06:02:12.872Z,32.46
2023-05-24T06:04:40.014Z,30.96
2023-05-24T06:07:07.111Z,33.74
2023-05-24T06:09:34.191Z,33.86
2023-05-24T06:12:01.315Z,33.93
2023-05-24T06:14:28.463Z,36.19
2023-05-24T06:16:56.834Z,37.04
2023-05-24T06:19:25.076Z,38.11
2023-05-24T06:21:52.193Z,39.00
2023-05-24T06:24:22.835Z,39.87
2023-05-24T06:26:52.434Z,39.67
2023-05-24T06:29:21.052Z,37.83
2023-05-24T06:31:51.699Z,36.36
2023-05-24T06:34:22.399Z,34.23
2023-05-24T06:36:51.046Z,32.87
2023-05-24T06:39:19.004Z,32.72
2023-05-24T06:41:47.202Z,30.59
2023-05-24T06:44:14.727Z,30.19
2023-05-24T06:46:42.010Z,29.64
2023-05-24T06:49:09.137Z,29.59
2023-05-24T06:51:38.074Z,29.59
2023-05-24T06:54:05.211Z,29.39
2023-05-24T06:56:33.116Z,28.93
2023-05-24T06:59:00.756Z,28.92
2023-05-24T07:01:29.345Z,29.19
2023-05-24T07:03:56.571Z,32.23
2023-05-24T07:06:23.646Z,33.22
2023-05-24T07:08:50.816Z,31.45
2023-05-24T07:11:18.045Z,30.73
2023-05-24T07:13:45.154Z,30.83
2023-05-24T07:16:12.179Z,30.57
2023-05-24T07:18:41.763Z,32.09
2023-05-24T07:21:09.114Z,33.70
2023-05-24T07:23:37.108Z,34.50
2023-05-24T07:26:05.586Z,35.57
2023-05-24T07:28:32.941Z,37.08
2023-05-24T07:31:00.485Z,37.13
2023-05-24T07:33:27.682Z,36.83
2023-05-24T07:35:54.895Z,35.84
2023-05-24T07:38:21.999Z,34.23
2023-05-24T07:40:49.114Z,33.03
2023-05-24T07:43:16.356Z,31.91
2023-05-24T07:45:43.612Z,32.35
2023-05-24T07:48:10.986Z,32.71
2023-05-24T07:50:38.648Z,33.50
2023-05-24T07:53:06.374Z,33.68
2023-05-24T07:55:33.745Z,33.96
2023-05-24T07:58:00.851Z,33.87
2023-05-24T08:00:27.897Z,32.89
2023-05-24T08:02:55.038Z,33.33
2023-05-24T08:05:22.197Z,34.60
2023-05-24T08:07:52.160Z,34.73
2023-05-24T08:10:19.394Z,35.30
2023-05-24T08:12:46.829Z,35.51
2023-05-24T08:15:13.899Z,35.02
2023-05-24T08:17:41.364Z,34.75
2023-05-24T08:20:10.111Z,34.03
2023-05-24T08:22:37.876Z,32.78
2023-05-24T08:25:06.858Z,32.89
2023-05-24T08:27:34.066Z,32.23
2023-05-24T08:30:01.850Z,30.93
2023-05-24T08:32:28.958Z,31.09
2023-05-24T08:35:06.690Z,30.65
2023-05-24T08:37:38.125Z,31.86
2023-05-24T08:40:05.934Z,31.38
2023-05-24T08:42:33.502Z,32.30
2023-05-24T08:45:15.282Z,31.92
2023-05-24T08:47:42.663Z,31.38
2023-05-24T08:50:11.162Z,31.14
2023-05-24T08:52:39.833Z,30.41
2023-05-24T08:55:08.706Z,29.38
2023-05-24T08:57:39.904Z,29.67
2023-05-24T09:00:12.844Z,29.78
2023-05-24T09:02:42.350Z,29.00
2023-05-24T09:05:16.868Z,28.97
2023-05-24T09:07:45.637Z,28.61
2023-05-24T09:10:12.909Z,28.68
2023-05-24T09:12:45.730Z,28.20
2023-05-24T09:15:12.951Z,27.58
2023-05-24T09:17:40.755Z,27.79
2023-05-24T09:20:10.891Z,27.68
2023-05-24T09:22:42.097Z,27.61
2023-05-24T09:25:13.828Z,27.79
2023-05-24T09:27:41.635Z,27.86
2023-05-24T09:30:10.882Z,28.38
2023-05-24T09:32:38.333Z,28.56
2023-05-24T09:35:10.011Z,28.04
2023-05-24T09:37:40.855Z,28.24
2023-05-24T09:40:20.271Z,28.01
2023-05-24T09:42:51.487Z,28.10
2023-05-24T09:45:18.769Z,28.26
2023-05-24T09:47:46.251Z,28.00
2023-05-24T09:50:15.771Z,28.04
2023-05-24T09:52:43.570Z,28.01
2023-05-24T09:55:17.025Z,28.32
2023-05-24T09:58:12.825Z,27.87
2023-05-24T10:00:41.643Z,28.05
2023-05-24T10:03:12.239Z,28.43
2023-05-24T10:05:44.813Z,28.57
2023-05-24T10:08:12.710Z,28.31
2023-05-24T10:10:39.831Z,28.38
2023-05-24T10:13:07.766Z,28.83
2023-05-24T10:15:34.976Z,28.67
2023-05-24T10:18:10.408Z,28.46
2023-05-24T10:20:38.728Z,28.42
2023-05-24T10:23:09.994Z,28.49
2023-05-24T10:25:44.772Z,27.63
2023-05-24T10:28:15.281Z,27.01
2023-05-24T10:31:10.705Z,28.20
2023-05-24T10:33:39.209Z,28.80
2023-05-24T10:36:09.998Z,28.61
2023-05-24T10:38:42.057Z,28.89
2023-05-24T10:41:09.748Z,28.72
2023-05-24T10:43:37.993Z,28.99
2023-05-24T10:46:08.887Z,28.32
2023-05-24T10:48:40.827Z,28.91
2023-05-24T10:51:34.814Z,29.25
2023-05-24T10:54:19.744Z,29.13
2023-05-24T10:56:49.997Z,29.55
2023-05-24T10:59:45.435Z,29.47
2023-05-24T11:02:16.797Z,29.02
2023-05-24T11:04:47.175Z,28.40
2023-05-24T11:07:15.859Z,28.80
2023-05-24T11:09:46.823Z,28.91
2023-05-24T11:12:19.271Z,29.47
2023-05-24T11:14:52.427Z,29.13
2023-05-24T11:17:24.023Z,29.10
2023-05-24T11:19:54.312Z,28.91
2023-05-24T11:22:24.396Z,28.42
2023-05-24T11:24:53.316Z,28.99
2023-05-24T11:27:20.541Z,28.63
2023-05-24T11:29:48.905Z,28.54
2023-05-24T11:32:19.273Z,28.66
2023-05-24T11:34:50.056Z,28.52
2023-05-24T11:37:18.617Z,28.76
2023-05-24T11:39:54.138Z,28.95
2023-05-24T11:42:23.423Z,29.04
2023-05-24T11:44:50.776Z,28.66
2023-05-24T11:47:22.101Z,28.91
2023-05-24T11:49:52.694Z,28.89
2023-05-24T11:52:20.161Z,28.81
2023-05-24T11:54:47.511Z,28.91
2023-05-24T11:57:14.785Z,28.81
2023-05-24T11:59:42.013Z,28.85
2023-05-24T12:02:09.310Z,28.88
2023-05-24T12:04:36.602Z,29.05
2023-05-24T12:07:03.800Z,29.11
2023-05-24T12:09:30.883Z,29.22
2023-05-24T12:11:58.700Z,29.46
2023-05-24T12:14:33.737Z,29.23
2023-05-24T12:17:01.373Z,29.25
2023-05-24T12:19:35.778Z,29.16
2023-05-24T12:22:07.513Z,29.27
2023-05-24T12:24:35.466Z,29.41
2023-05-24T12:27:08.336Z,29.46
2023-05-24T12:29:45.686Z,29.44
2023-05-24T12:32:14.335Z,29.59
2023-05-24T12:34:44.380Z,29.18
2023-05-24T12:37:13.375Z,28.98
2023-05-24T12:39:43.586Z,28.79
2023-05-24T12:42:13.173Z,29.11
2023-05-24T12:44:40.794Z,28.93
2023-05-24T12:47:09.196Z,28.93
2023-05-24T12:49:36.768Z,28.48
2023-05-24T12:52:04.596Z,28.85
2023-05-24T12:54:32.271Z,29.03
2023-05-24T12:57:00.566Z,29.02
2023-05-24T12:59:28.726Z,28.71
2023-05-24T13:01:56.250Z,28.17
2023-05-24T13:04:27.200Z,28.40
2023-05-24T13:06:54.626Z,28.38
2023-05-24T13:09:23.563Z,28.39
2023-05-24T13:11:52.539Z,28.35
2023-05-24T13:14:20.484Z,28.54
2023-05-24T13:16:48.428Z,28.76
2023-05-24T13:19:16.600Z,28.78
2023-05-24T13:21:44.067Z,28.96
2023-05-24T13:24:12.545Z,28.84
2023-05-24T13:26:39.606Z,28.78
2023-05-24T13:29:32.223Z,28.72
2023-05-24T13:31:54.259Z,29.08
2023-05-24T13:34:21.804Z,29.32
2023-05-24T13:36:48.829Z,29.38
2023-05-24T13:39:16.734Z,29.31
2023-05-24T13:41:44.656Z,29.39
2023-05-24T13:44:13.580Z,28.79
2023-05-24T13:46:41.553Z,29.34
2023-05-24T13:49:10.063Z,29.30
2023-05-24T13:51:38.560Z,29.48
2023-05-24T13:54:07.519Z,29.22
2023-05-24T13:56:35.713Z,28.93
2023-05-24T13:59:04.536Z,29.01
2023-05-24T14:01:32.912Z,28.71
2023-05-24T14:04:02.584Z,28.08
2023-05-24T14:06:29.869Z,27.98
2023-05-24T14:08:57.219Z,27.79
2023-05-24T14:11:25.490Z,27.45
2023-05-24T14:16:25.212Z,24.95
2023-05-24T14:18:52.501Z,25.02
2023-05-24T14:21:21.811Z,25.10
2023-05-24T14:23:49.843Z,25.03
2023-05-24T14:26:18.580Z,25.00
2023-05-24T14:28:45.701Z,24.44
2023-05-24T14:31:12.805Z,24.28
2023-05-24T14:33:39.995Z,24.17
2023-05-24T14:36:07.713Z,24.25
2023-05-24T14:38:34.853Z,24.30
2023-05-24T14:41:02.194Z,24.42
2023-05-24T14:43:29.306Z,24.50
2023-05-24T14:45:56.608Z,24.68
2023-05-24T14:48:23.754Z,24.61
2023-05-24T14:50:50.802Z,24.77
2023-05-24T14:53:17.885Z,24.66
2023-05-24T14:55:45.347Z,24.50
2023-05-24T14:58:12.905Z,24.49
2023-05-24T15:00:41.864Z,24.22
2023-05-24T15:03:09.419Z,24.44
2023-05-24T15:05:37.149Z,24.27
2023-05-24T15:08:05.900Z,24.49
2023-05-24T15:10:33.398Z,24.60
2023-05-24T15:13:01.567Z,24.65
2023-05-24T15:15:29.232Z,24.64
2023-05-24T15:17:57.722Z,24.49
2023-05-24T15:20:26.063Z,24.48
2023-05-24T15:22:53.629Z,24.37
2023-05-24T15:25:21.049Z,24.15
2023-05-24T15:27:48.459Z,24.21
2023-05-24T15:30:17.481Z,24.07
2023-05-24T15:32:46.570Z,24.02
2023-05-24T15:35:13.799Z,23.83
2023-05-24T15:37:42.755Z,23.75
2023-05-24T15:40:11.210Z,23.63
2023-05-24T15:42:38.437Z,23.74
2023-05-24T15:45:06.443Z,23.54
2023-05-24T15:47:39.517Z,23.58
2023-05-24T15:50:10.442Z,23.42
2023-05-24T15:52:37.617Z,23.69
2023-05-24T15:55:05.827Z,23.59
2023-05-24T15:57:32.898Z,23.44
2023-05-24T16:00:01.315Z,23.31
2023-05-24T16:02:30.288Z,23.21
2023-05-24T16:04:57.591Z,23.32
2023-05-24T16:07:24.770Z,23.32
2023-05-24T16:09:51.863Z,23.15
2023-05-24T16:12:19.154Z,23.21
2023-05-24T16:14:46.596Z,23.26
2023-05-24T16:17:15.052Z,23.08
2023-05-24T16:19:42.298Z,23.07
2023-05-24T16:22:09.392Z,23.02
2023-05-24T16:24:36.444Z,22.84
2023-05-24T16:27:03.530Z,22.84
2023-05-24T16:29:30.581Z,22.59
2023-05-24T16:31:57.698Z,22.69
2023-05-24T16:34:25.645Z,22.60
2023-05-24T16:36:52.815Z,22.63
2023-05-24T16:39:20.019Z,22.63
2023-05-24T16:41:47.753Z,22.53
2023-05-24T16:44:18.057Z,22.55
2023-05-24T16:46:46.650Z,22.53
2023-05-24T16:49:13.931Z,22.44
2023-05-24T16:51:41.075Z,21.97
2023-05-24T16:54:09.249Z,22.08
2023-05-24T16:56:38.149Z,21.89
2023-05-24T16:59:05.595Z,21.81
2023-05-24T17:01:32.886Z,21.81
2023-05-24T17:04:00.419Z,21.94
2023-05-24T17:06:27.745Z,21.53
2023-05-24T17:08:54.817Z,21.60
2023-05-24T17:11:23.120Z,21.71
2023-05-24T17:13:51.541Z,21.81
2023-05-24T17:16:18.938Z,21.58
2023-05-24T17:18:46.328Z,21.63
2023-05-24T17:21:13.857Z,21.69
2023-05-24T17:23:41.458Z,21.64
2023-05-24T17:26:08.922Z,21.68
2023-05-24T17:28:36.483Z,21.51
2023-05-24T17:31:03.777Z,21.19
2023-05-24T17:33:31.744Z,21.16
2023-05-24T17:36:02.681Z,21.07
2023-05-24T17:38:33.029Z,21.33
2023-05-24T17:41:00.341Z,21.06
2023-05-24T17:43:32.865Z,20.82
2023-05-24T17:46:08.589Z,21.06
2023-05-24T17:48:41.156Z,20.81
2023-05-24T17:51:10.389Z,20.80
2023-05-24T17:53:38.468Z,20.71
2023-05-24T17:56:06.520Z,20.92
2023-05-24T17:58:36.934Z,20.99
2023-05-24T18:01:10.086Z,20.90
2023-05-24T18:03:39.075Z,21.00
2023-05-24T18:06:07.452Z,20.90
2023-05-24T18:08:37.964Z,20.81
2023-05-24T18:11:08.645Z,20.82
2023-05-24T18:13:42.019Z,20.96
2023-05-24T18:16:11.409Z,20.80
2023-05-24T18:18:38.865Z,20.67
2023-05-24T18:21:06.389Z,20.70
2023-05-24T18:23:37.569Z,20.74
2023-05-24T18:26:09.588Z,20.61
2023-05-24T18:28:38.162Z,20.57
2023-05-24T18:31:14.585Z,20.61
2023-05-24T18:33:42.116Z,20.52
2023-05-24T18:36:09.444Z,20.44
2023-05-24T18:38:37.258Z,20.33
2023-05-24T18:41:06.457Z,20.28
2023-05-24T18:43:33.843Z,20.27
2023-05-24T18:46:01.324Z,20.23
2023-05-24T18:48:28.369Z,20.29
2023-05-24T18:50:55.413Z,20.11
2023-05-24T18:53:22.457Z,20.15
2023-05-24T18:55:49.593Z,20.08
2023-05-24T18:58:16.681Z,20.11
2023-05-24T19:00:43.815Z,19.97
2023-05-24T19:03:14.040Z,20.04
2023-05-24T19:05:43.508Z,19.86
2023-05-24T19:08:11.463Z,19.78
2023-05-24T19:10:38.610Z,19.88
2023-05-24T19:13:06.583Z,19.79
2023-05-24T19:15:36.695Z,19.66
2023-05-24T19:18:04.340Z,19.54
2023-05-24T19:20:31.522Z,19.48
2023-05-24T19:22:59.807Z,19.43
2023-05-24T19:25:27.063Z,19.46
2023-05-24T19:28:00.035Z,19.44
2023-05-24T19:30:27.883Z,19.39
2023-05-24T19:32:55.064Z,19.35
2023-05-24T19:35:22.340Z,19.23
2023-05-24T19:37:49.493Z,19.08
2023-05-24T19:40:16.689Z,19.04
2023-05-24T19:42:43.736Z,18.85
2023-05-24T19:45:12.103Z,18.86
2023-05-24T19:47:39.818Z,18.87
2023-05-24T19:50:08.026Z,18.79
2023-05-24T19:52:35.069Z,18.83
2023-05-24T19:55:02.195Z,18.69
2023-05-24T19:57:29.236Z,18.69
2023-05-24T19:59:56.377Z,18.53
2023-05-24T20:02:23.514Z,18.67
2023-05-24T20:04:50.550Z,18.59
2023-05-24T20:07:17.605Z,18.53
2023-05-24T20:09:44.739Z,18.40
2023-05-24T20:12:12.017Z,18.37
2023-05-24T20:14:39.104Z,18.34
2023-05-24T20:17:06.143Z,18.28
2023-05-24T20:19:33.171Z,18.40
2023-05-24T20:22:00.351Z,18.27
2023-05-24T20:24:27.449Z,18.28
2023-05-24T20:26:54.514Z,18.09
2023-05-24T20:29:21.630Z,18.04
2023-05-24T20:31:48.709Z,18.05
2023-05-24T20:34:15.863Z,18.04
2023-05-24T20:36:43.910Z,17.92
2023-05-24T20:39:11.429Z,17.80
2023-05-24T20:41:38.498Z,17.87
2023-05-24T20:44:05.761Z,17.76
2023-05-24T20:46:32.869Z,17.85
2023-05-24T20:48:59.999Z,17.87
2023-05-24T20:51:27.099Z,17.84
2023-05-24T20:53:54.206Z,17.83
2023-05-24T20:56:23.281Z,17.84
2023-05-24T20:58:53.079Z,17.77
2023-05-24T21:01:21.188Z,17.58
2023-05-24T21:03:48.485Z,17.64
2023-05-24T21:06:15.647Z,17.71
2023-05-24T21:08:43.589Z,17.64
2023-05-24T21:11:11.188Z,17.71
2023-05-24T21:13:38.486Z,17.70
2023-05-24T21:16:05.852Z,17.72
2023-05-24T21:18:33.524Z,17.76
2023-05-24T21:21:00.832Z,17.72
2023-05-24T21:23:27.908Z,17.57
2023-05-24T21:25:54.953Z,17.34
2023-05-24T21:28:22.049Z,17.45
2023-05-24T21:30:49.174Z,17.48
2023-05-24T21:33:16.872Z,17.58
2023-05-24T21:35:44.408Z,17.43
2023-05-24T21:38:11.644Z,17.63
2023-05-24T21:40:38.705Z,17.61
2023-05-24T21:43:05.850Z,17.61
2023-05-24T21:45:32.902Z,17.51
2023-05-24T21:48:00.056Z,17.56
2023-05-24T21:50:27.169Z,17.56
2023-05-24T21:52:54.235Z,17.64
2023-05-24T21:55:21.275Z,17.53
2023-05-24T21:57:48.457Z,17.44
2023-05-24T22:00:17.167Z,17.49
2023-05-24T22:02:44.389Z,17.47
2023-05-24T22:05:11.649Z,17.45
2023-05-24T22:07:38.805Z,17.43
2023-05-24T22:10:07.437Z,17.44
2023-05-24T22:12:35.190Z,17.44
2023-05-24T22:15:02.676Z,17.40
2023-05-24T22:17:32.672Z,17.31
2023-05-24T22:20:01.448Z,17.26
2023-05-24T22:22:29.902Z,17.26
2023-05-24T22:24:57.093Z,17.15
2023-05-24T22:27:24.161Z,17.01
2023-05-24T22:29:51.409Z,17.20
2023-05-24T22:32:18.646Z,17.22
2023-05-24T22:34:46.042Z,17.13
2023-05-24T22:37:13.306Z,17.12
2023-05-24T22:39:40.434Z,17.17
2023-05-24T22:42:07.597Z,17.29
2023-05-24T22:44:34.709Z,17.08
2023-05-24T22:47:02.153Z,17.02
2023-05-24T22:49:34.079Z,16.96
2023-05-24T22:52:01.429Z,17.02
2023-05-24T22:54:28.473Z,16.87
2023-05-24T22:56:56.809Z,16.80
2023-05-24T22:59:23.924Z,16.86
2023-05-24T23:01:51.297Z,16.81
2023-05-24T23:04:21.275Z,16.86
2023-05-24T23:06:52.872Z,16.79
2023-05-24T23:09:34.931Z,16.72
2023-05-24T23:12:07.917Z,16.69
2023-05-24T23:14:39.941Z,16.47
2023-05-24T23:17:14.406Z,16.51
2023-05-24T23:19:42.838Z,16.46
2023-05-24T23:22:11.986Z,16.24
2023-05-24T23:24:42.685Z,16.34
2023-05-24T23:27:10.182Z,16.54
2023-05-24T23:29:39.166Z,16.46
2023-05-24T23:32:07.985Z,16.55
2023-05-24T23:34:35.217Z,16.35
2023-05-24T23:37:03.272Z,16.19
2023-05-24T23:39:30.590Z,16.17
2023-05-24T23:41:57.678Z,16.21
2023-05-24T23:44:25.777Z,16.18
2023-05-24T23:46:53.945Z,16.23
2023-05-24T23:49:21.099Z,16.01
2023-05-24T23:51:48.183Z,16.06
2023-05-24T23:54:15.803Z,16.10
2023-05-24T23:56:42.911Z,15.86
2023-05-24T23:59:10.531Z,15.79
